Hunter, Oklahoma
Current Conditions -  °F | °C
As of 7:50 AM on Thursday 27 Nov 2014 (Local Time) from KWDG Reporting Station
Clear Clear  
Wind Chill: 25°   Ceiling: Unl
Heat Index: 25°   Visibility: 10mi
Dew Point: 23°   Wind: 0mph
Humidity: 93%   Direction: NA
Pressure: 30.53"   Gusts: NA
Location:  36.56°N, 97.66°W
Report Text: KWDG 271350Z 00000KT 10SM SKC M04/M05 A3053
Loading
Personal Weather Stations






























Interactive Weather Map New forecast layout! Learn more

10-Day Weather Forecast

Advertisements
Track Severe Weather on mobile